createdAt,value
2022-11-05T00:00:02.478Z,11.28
2022-11-05T00:03:09.606Z,11.24
2022-11-05T00:05:54.967Z,11.23
2022-11-05T00:08:40.200Z,11.26
2022-11-05T00:11:06.625Z,11.24
2022-11-05T00:13:51.813Z,11.22
2022-11-05T00:16:37.122Z,11.17
2022-11-05T00:19:06.273Z,11.17
2022-11-05T00:21:52.596Z,11.19
2022-11-05T00:24:37.783Z,11.17
2022-11-05T00:27:04.424Z,11.13
2022-11-05T00:29:30.898Z,11.10
2022-11-05T00:31:57.490Z,11.11
2022-11-05T00:34:24.022Z,11.09
2022-11-05T00:36:50.512Z,11.08
2022-11-05T00:39:17.197Z,11.05
2022-11-05T00:41:43.551Z,11.04
2022-11-05T00:44:28.901Z,11.02
2022-11-05T00:47:15.504Z,10.96
2022-11-05T00:49:42.555Z,11.00
2022-11-05T00:52:28.038Z,11.01
2022-11-05T00:54:54.669Z,10.93
2022-11-05T00:57:21.119Z,10.87
2022-11-05T00:59:47.556Z,10.84
2022-11-05T01:02:14.134Z,10.90
2022-11-05T01:04:40.648Z,10.86
2022-11-05T01:07:07.082Z,10.88
2022-11-05T01:09:33.686Z,10.88
2022-11-05T01:12:00.153Z,10.80
2022-11-05T01:14:26.914Z,10.73
2022-11-05T01:16:53.375Z,10.66
2022-11-05T01:19:19.838Z,10.69
2022-11-05T01:21:46.540Z,10.72
2022-11-05T01:24:12.883Z,10.71
2022-11-05T01:26:39.326Z,10.63
2022-11-05T01:29:05.858Z,10.57
2022-11-05T01:31:32.291Z,10.65
2022-11-05T01:34:00.098Z,10.72
2022-11-05T01:36:26.533Z,10.80
2022-11-05T01:38:53.115Z,10.85
2022-11-05T01:41:19.541Z,10.87
2022-11-05T01:43:56.876Z,10.90
2022-11-05T01:46:26.127Z,10.94
2022-11-05T01:48:52.588Z,10.91
2022-11-05T01:51:22.008Z,10.90
2022-11-05T01:53:52.544Z,10.93
2022-11-05T01:56:43.290Z,10.88
2022-11-05T01:59:20.574Z,10.88
2022-11-05T02:01:47.089Z,10.88
2022-11-05T02:04:17.226Z,10.84
2022-11-05T02:06:45.884Z,10.95
2022-11-05T02:09:20.550Z,10.87
2022-11-05T02:11:47.100Z,10.92
2022-11-05T02:14:13.553Z,10.99
2022-11-05T02:17:01.880Z,11.01
2022-11-05T02:20:03.935Z,10.97
2022-11-05T02:23:01.677Z,11.06
2022-11-05T02:25:50.123Z,11.05
2022-11-05T02:28:46.559Z,11.12
2022-11-05T02:31:24.341Z,11.16
2022-11-05T02:34:05.897Z,11.23
2022-11-05T02:37:06.854Z,11.26
2022-11-05T02:40:00.099Z,11.27
2022-11-05T02:42:55.475Z,11.40
2022-11-05T02:45:52.644Z,11.46
2022-11-05T02:48:28.865Z,11.46
2022-11-05T02:51:01.371Z,11.43
2022-11-05T02:53:37.727Z,11.47
2022-11-05T02:56:13.716Z,11.53
2022-11-05T02:58:40.819Z,11.49
2022-11-05T03:01:10.514Z,11.51
2022-11-05T03:03:46.537Z,11.52
2022-11-05T03:06:29.850Z,11.45
2022-11-05T03:09:27.316Z,11.50
2022-11-05T03:12:13.477Z,11.65
2022-11-05T03:14:45.174Z,11.69
2022-11-05T03:17:17.647Z,11.63
2022-11-05T03:20:01.472Z,11.53
2022-11-05T03:22:33.381Z,11.63
2022-11-05T03:25:07.985Z,11.57
2022-11-05T03:27:36.839Z,11.53
2022-11-05T03:30:08.588Z,11.55
2022-11-05T03:32:39.351Z,11.56
2022-11-05T03:35:18.100Z,11.49
2022-11-05T03:37:44.763Z,11.63
2022-11-05T03:40:11.700Z,11.60
2022-11-05T03:42:40.720Z,11.59
2022-11-05T03:45:21.153Z,11.66
2022-11-05T03:47:47.586Z,11.69
2022-11-05T03:50:20.368Z,11.59
2022-11-05T03:53:13.891Z,11.54
2022-11-05T03:55:59.293Z,11.64
2022-11-05T03:58:26.048Z,11.61
2022-11-05T04:00:52.589Z,11.52
2022-11-05T04:03:19.118Z,11.59
2022-11-05T04:06:05.567Z,11.42
2022-11-05T04:08:58.367Z,11.40
2022-11-05T04:11:43.487Z,11.53
2022-11-05T04:14:10.179Z,11.61
2022-11-05T04:16:55.235Z,11.71
2022-11-05T04:19:39.987Z,11.60
2022-11-05T04:22:25.076Z,11.56
2022-11-05T04:24:51.507Z,11.53
2022-11-05T04:27:17.940Z,11.58
2022-11-05T04:30:03.110Z,11.58
2022-11-05T04:32:29.543Z,11.54
2022-11-05T04:34:55.974Z,11.55
2022-11-05T04:37:22.512Z,11.56
2022-11-05T04:39:49.042Z,11.60
2022-11-05T04:42:15.871Z,11.64
2022-11-05T04:44:42.419Z,11.56
2022-11-05T04:47:08.887Z,11.51
2022-11-05T04:49:35.390Z,11.42
2022-11-05T04:52:01.922Z,11.45
2022-11-05T04:54:28.455Z,11.50
2022-11-05T04:56:54.888Z,11.51
2022-11-05T04:59:21.339Z,11.44
2022-11-05T05:01:52.536Z,11.40
2022-11-05T05:04:20.124Z,11.31
2022-11-05T05:06:46.660Z,11.28
2022-11-05T05:09:13.195Z,11.23
2022-11-05T05:11:40.546Z,11.20
2022-11-05T05:14:08.013Z,11.26
2022-11-05T05:16:34.386Z,11.23
2022-11-05T05:19:00.992Z,11.22
2022-11-05T05:21:39.995Z,11.25
2022-11-05T05:24:18.208Z,11.29
2022-11-05T05:26:47.575Z,11.36
2022-11-05T05:29:14.362Z,11.33
2022-11-05T05:31:41.192Z,11.34
2022-11-05T05:34:07.928Z,11.43
2022-11-05T05:36:34.475Z,11.41
2022-11-05T05:39:01.097Z,11.46
2022-11-05T05:41:27.635Z,11.50
2022-11-05T05:43:54.064Z,11.56
2022-11-05T05:46:20.597Z,11.59
2022-11-05T05:48:51.132Z,11.65
2022-11-05T05:51:18.019Z,11.72
2022-11-05T05:53:44.519Z,11.64
2022-11-05T05:56:14.416Z,11.59
2022-11-05T05:58:40.951Z,11.49
2022-11-05T06:01:17.184Z,11.65
2022-11-05T06:03:45.699Z,11.68
2022-11-05T06:06:14.584Z,11.70
2022-11-05T06:08:42.037Z,11.80
2022-11-05T06:11:08.707Z,11.91
2022-11-05T06:13:36.026Z,12.12
2022-11-05T06:16:07.271Z,12.11
2022-11-05T06:18:34.113Z,11.96
2022-11-05T06:21:04.167Z,12.11
2022-11-05T06:23:32.099Z,12.17
2022-11-05T06:26:00.886Z,12.15
2022-11-05T06:28:28.957Z,12.04
2022-11-05T06:30:56.682Z,11.97
2022-11-05T06:33:23.575Z,12.01
2022-11-05T06:35:50.093Z,12.06
2022-11-05T06:38:16.631Z,12.12
2022-11-05T06:40:43.063Z,12.25
2022-11-05T06:43:09.880Z,12.25
2022-11-05T06:45:36.539Z,12.26
2022-11-05T06:48:03.278Z,12.45
2022-11-05T06:50:29.669Z,12.10
2022-11-05T06:53:01.374Z,11.30
2022-11-05T06:55:29.129Z,10.75
2022-11-05T06:57:56.072Z,10.95
2022-11-05T07:00:23.124Z,11.57
2022-11-05T07:02:49.652Z,11.97
2022-11-05T07:05:16.393Z,12.21
2022-11-05T07:07:43.949Z,12.51
2022-11-05T07:10:13.487Z,12.57
2022-11-05T07:12:39.990Z,12.69
2022-11-05T07:15:07.342Z,12.73
2022-11-05T07:17:33.882Z,12.00
2022-11-05T07:20:00.310Z,11.36
2022-11-05T07:22:26.843Z,11.69
2022-11-05T07:24:53.274Z,12.14
2022-11-05T07:27:19.810Z,12.50
2022-11-05T07:29:46.347Z,12.64
2022-11-05T07:32:12.790Z,12.73
2022-11-05T07:34:39.210Z,12.85
2022-11-05T07:37:05.963Z,12.89
2022-11-05T07:39:32.399Z,12.65
2022-11-05T07:41:59.018Z,11.99
2022-11-05T07:44:30.673Z,11.26
2022-11-05T07:46:57.206Z,11.23
2022-11-05T07:49:23.843Z,11.76
2022-11-05T07:51:50.332Z,12.31
2022-11-05T07:54:16.862Z,12.69
2022-11-05T07:56:46.519Z,12.46
2022-11-05T07:59:13.154Z,11.56
2022-11-05T08:01:39.986Z,11.22
2022-11-05T08:04:06.744Z,11.69
2022-11-05T08:06:33.280Z,12.07
2022-11-05T08:08:59.928Z,12.36
2022-11-05T08:11:26.408Z,12.69
2022-11-05T08:13:52.841Z,12.81
2022-11-05T08:16:19.674Z,12.96
2022-11-05T08:18:46.403Z,12.67
2022-11-05T08:21:12.860Z,11.82
2022-11-05T08:23:39.424Z,11.43
2022-11-05T08:26:05.912Z,11.91
2022-11-05T08:28:32.452Z,12.37
2022-11-05T08:30:58.909Z,12.69
2022-11-05T08:33:25.354Z,12.83
2022-11-05T08:35:51.781Z,12.44
2022-11-05T08:38:18.806Z,11.68
2022-11-05T08:40:52.772Z,11.14
2022-11-05T08:43:19.193Z,11.27
2022-11-05T08:45:45.706Z,11.90
2022-11-05T08:48:14.386Z,12.32
2022-11-05T08:50:41.335Z,12.75
2022-11-05T08:53:08.165Z,12.97
2022-11-05T08:55:34.841Z,13.20
2022-11-05T08:58:04.181Z,12.78
2022-11-05T09:00:33.987Z,11.99
2022-11-05T09:03:05.523Z,11.40
2022-11-05T09:05:37.644Z,11.38
2022-11-05T09:08:07.947Z,11.96
2022-11-05T09:10:34.587Z,12.50
2022-11-05T09:13:01.284Z,12.90
2022-11-05T09:15:28.384Z,13.23
2022-11-05T09:17:55.071Z,13.21
2022-11-05T09:20:21.610Z,12.57
2022-11-05T09:22:48.097Z,11.87
2022-11-05T09:25:17.169Z,11.33
2022-11-05T09:27:43.832Z,11.38
2022-11-05T09:30:11.722Z,12.13
2022-11-05T09:32:38.136Z,12.79
2022-11-05T09:35:05.406Z,13.15
2022-11-05T09:37:31.870Z,13.21
2022-11-05T09:39:58.241Z,12.60
2022-11-05T09:42:29.954Z,12.03
2022-11-05T09:45:07.314Z,11.71
2022-11-05T09:47:40.594Z,12.21
2022-11-05T09:50:12.389Z,12.92
2022-11-05T09:52:38.962Z,13.45
2022-11-05T09:55:16.904Z,13.76
2022-11-05T09:57:56.554Z,13.67
2022-11-05T10:00:23.275Z,12.90
2022-11-05T10:02:55.172Z,12.57
2022-11-05T10:05:23.753Z,13.06
2022-11-05T10:08:04.684Z,13.42
2022-11-05T10:10:50.883Z,13.69
2022-11-05T10:13:45.516Z,12.95
2022-11-05T10:16:23.583Z,12.20
2022-11-05T10:18:58.588Z,12.38
2022-11-05T10:21:51.348Z,13.08
2022-11-05T10:24:18.534Z,13.65
2022-11-05T10:26:50.862Z,13.87
2022-11-05T10:29:32.140Z,13.25
2022-11-05T10:32:01.030Z,12.52
2022-11-05T10:34:34.015Z,12.03
2022-11-05T10:37:00.450Z,11.94
2022-11-05T10:39:34.258Z,12.63
2022-11-05T10:42:27.313Z,13.29
2022-11-05T10:45:18.385Z,13.78
2022-11-05T10:48:00.935Z,13.93
2022-11-05T10:50:28.997Z,13.13
2022-11-05T10:53:11.675Z,12.47
2022-11-05T10:55:45.842Z,11.92
2022-11-05T10:58:15.225Z,11.96
2022-11-05T11:00:51.134Z,12.64
2022-11-05T11:03:48.952Z,13.26
2022-11-05T11:06:23.542Z,13.54
2022-11-05T11:08:51.137Z,13.81
2022-11-05T11:11:35.374Z,13.37
2022-11-05T11:14:18.709Z,12.50
2022-11-05T11:16:57.115Z,11.87
2022-11-05T11:19:43.008Z,11.81
2022-11-05T11:22:15.783Z,12.54
2022-11-05T11:24:50.456Z,13.13
2022-11-05T11:27:29.467Z,13.60
2022-11-05T11:30:00.945Z,13.85
2022-11-05T11:32:34.802Z,14.01
2022-11-05T11:35:01.531Z,14.01
2022-11-05T11:37:30.223Z,14.13
2022-11-05T11:40:03.635Z,14.04
2022-11-05T11:42:33.218Z,13.23
2022-11-05T11:45:05.347Z,12.44
2022-11-05T11:47:31.883Z,11.81
2022-11-05T11:50:00.260Z,11.35
2022-11-05T11:52:32.714Z,11.17
2022-11-05T11:55:11.298Z,11.81
2022-11-05T11:57:52.251Z,12.47
2022-11-05T12:00:22.766Z,12.90
2022-11-05T12:03:08.716Z,13.17
2022-11-05T12:05:49.965Z,13.41
2022-11-05T12:08:45.835Z,13.70
2022-11-05T12:11:28.731Z,13.90
2022-11-05T12:13:59.693Z,14.13
2022-11-05T12:16:37.193Z,14.15
2022-11-05T12:19:23.875Z,14.19
2022-11-05T12:22:19.173Z,14.18
2022-11-05T12:25:09.643Z,13.77
2022-11-05T12:28:23.814Z,12.88
2022-11-05T12:31:04.730Z,11.94
2022-11-05T12:34:00.002Z,11.67
2022-11-05T12:36:48.851Z,12.28
2022-11-05T12:39:41.271Z,12.85
2022-11-05T12:42:27.877Z,13.25
2022-11-05T12:45:03.870Z,13.39
2022-11-05T12:47:58.424Z,13.45
2022-11-05T12:50:33.798Z,13.62
2022-11-05T12:53:23.125Z,13.80
2022-11-05T12:55:49.689Z,13.92
2022-11-05T12:58:23.786Z,13.95
2022-11-05T13:01:28.344Z,13.92
2022-11-05T13:03:58.330Z,13.94
2022-11-05T13:06:41.359Z,14.00
2022-11-05T13:09:25.380Z,14.15
2022-11-05T13:12:15.012Z,14.29
2022-11-05T13:15:09.037Z,14.24
2022-11-05T13:17:59.338Z,14.25
2022-11-05T13:20:32.795Z,14.23
2022-11-05T13:23:10.446Z,14.17
2022-11-05T13:25:41.568Z,14.24
2022-11-05T13:28:22.951Z,14.21
2022-11-05T13:30:55.684Z,14.25
2022-11-05T13:33:26.979Z,14.21
2022-11-05T13:36:26.481Z,14.21
2022-11-05T13:39:06.735Z,14.21
2022-11-05T13:42:11.163Z,14.17
2022-11-05T13:45:11.698Z,14.15
2022-11-05T13:47:49.734Z,14.13
2022-11-05T13:50:32.212Z,14.09
2022-11-05T13:53:27.001Z,14.10
2022-11-05T13:56:39.380Z,14.08
2022-11-05T13:59:27.447Z,14.09
2022-11-05T14:01:57.465Z,14.10
2022-11-05T14:04:44.633Z,14.09
2022-11-05T14:07:14.907Z,14.11
2022-11-05T14:09:41.848Z,14.16
2022-11-05T14:12:20.467Z,14.23
2022-11-05T14:14:51.332Z,14.22
2022-11-05T14:18:02.674Z,14.21
2022-11-05T14:20:35.088Z,14.19
2022-11-05T14:23:17.162Z,14.18
2022-11-05T14:25:43.707Z,14.20
2022-11-05T14:28:34.935Z,14.28
2022-11-05T14:31:41.147Z,14.30
2022-11-05T14:34:10.304Z,14.16
2022-11-05T14:36:43.107Z,14.17
2022-11-05T14:39:27.573Z,14.15
2022-11-05T14:42:29.412Z,14.13
2022-11-05T14:45:09.622Z,14.19
2022-11-05T14:47:40.076Z,14.28
2022-11-05T14:50:20.893Z,14.31
2022-11-05T14:52:56.367Z,14.34
2022-11-05T14:55:38.669Z,14.39
2022-11-05T14:58:32.601Z,14.46
2022-11-05T15:00:59.984Z,14.50
2022-11-05T15:03:42.583Z,14.51
2022-11-05T15:06:27.652Z,14.52
2022-11-05T15:09:07.889Z,14.50
2022-11-05T15:12:03.851Z,14.47
2022-11-05T15:14:34.480Z,14.44
2022-11-05T15:17:16.929Z,14.40
2022-11-05T15:19:43.421Z,14.34
2022-11-05T15:22:17.258Z,14.34
2022-11-05T15:24:43.665Z,14.30
2022-11-05T15:27:22.506Z,14.26
2022-11-05T15:29:48.889Z,14.25
2022-11-05T15:32:16.986Z,14.27
2022-11-05T15:34:51.889Z,14.29
2022-11-05T15:37:24.391Z,14.34
2022-11-05T15:39:53.186Z,14.36
2022-11-05T15:42:22.648Z,14.38
2022-11-05T15:44:56.980Z,14.42
2022-11-05T15:47:30.817Z,14.46
2022-11-05T15:50:01.427Z,14.47
2022-11-05T15:52:41.696Z,14.49
2022-11-05T15:55:11.144Z,14.50
2022-11-05T15:57:40.301Z,14.53
2022-11-05T16:00:24.614Z,14.54
2022-11-05T16:02:56.868Z,14.52
2022-11-05T16:05:28.599Z,14.52
2022-11-05T16:07:58.279Z,14.52
2022-11-05T16:10:32.058Z,14.53
2022-11-05T16:13:37.220Z,14.55
2022-11-05T16:16:32.037Z,14.50
2022-11-05T16:18:58.551Z,14.47
2022-11-05T16:21:25.082Z,14.48
2022-11-05T16:23:57.497Z,14.49
2022-11-05T16:27:00.742Z,14.50
2022-11-05T16:29:27.800Z,14.50
2022-11-05T16:31:55.357Z,14.52
2022-11-05T16:34:46.877Z,14.53
2022-11-05T16:37:18.598Z,14.55
2022-11-05T16:39:45.075Z,14.56
2022-11-05T16:42:26.863Z,14.59
2022-11-05T16:44:54.530Z,14.63
2022-11-05T16:47:21.603Z,14.66
2022-11-05T16:49:48.306Z,14.67
2022-11-05T16:52:15.398Z,14.68
2022-11-05T16:54:42.093Z,14.68
2022-11-05T16:57:18.918Z,14.68
2022-11-05T16:59:45.350Z,14.69
2022-11-05T17:02:12.005Z,14.71
2022-11-05T17:04:38.503Z,14.73
2022-11-05T17:07:05.019Z,14.73
2022-11-05T17:09:31.520Z,14.69
2022-11-05T17:12:00.190Z,14.65
2022-11-05T17:14:26.580Z,14.62
2022-11-05T17:16:53.801Z,14.62
2022-11-05T17:19:20.450Z,14.62
2022-11-05T17:21:46.973Z,14.61
2022-11-05T17:24:13.469Z,14.60
2022-11-05T17:26:40.163Z,14.59
2022-11-05T17:29:06.651Z,14.58
2022-11-05T17:31:33.077Z,14.56
2022-11-05T17:33:59.544Z,14.51
2022-11-05T17:36:26.022Z,14.46
2022-11-05T17:38:52.625Z,14.40
2022-11-05T17:41:21.699Z,14.38
2022-11-05T17:43:52.335Z,14.42
2022-11-05T17:46:19.311Z,14.49
2022-11-05T17:48:46.234Z,14.55
2022-11-05T17:51:14.703Z,14.58
2022-11-05T17:53:41.642Z,14.60
2022-11-05T17:56:09.704Z,14.67
2022-11-05T17:58:36.209Z,14.72
2022-11-05T18:01:03.605Z,14.78
2022-11-05T18:03:30.141Z,14.83
2022-11-05T18:06:03.471Z,14.88
2022-11-05T18:08:30.018Z,14.93
2022-11-05T18:10:56.556Z,14.96
2022-11-05T18:13:23.075Z,14.97
2022-11-05T18:15:51.419Z,14.99
2022-11-05T18:18:17.926Z,15.01
2022-11-05T18:20:44.439Z,15.07
2022-11-05T18:23:11.484Z,15.09
2022-11-05T18:25:40.425Z,15.08
2022-11-05T18:28:07.175Z,15.07
2022-11-05T18:30:36.081Z,15.11
2022-11-05T18:33:02.690Z,15.15
2022-11-05T18:35:29.062Z,15.19
2022-11-05T18:37:55.518Z,15.22
2022-11-05T18:40:21.997Z,15.26
2022-11-05T18:42:48.375Z,15.28
2022-11-05T18:45:14.860Z,15.00
2022-11-05T18:47:41.381Z,14.05
2022-11-05T18:50:08.804Z,13.13
2022-11-05T18:52:35.368Z,12.41
2022-11-05T18:55:01.858Z,12.02
2022-11-05T18:57:28.350Z,12.44
2022-11-05T18:59:54.777Z,12.94
2022-11-05T19:02:21.761Z,13.27
2022-11-05T19:05:13.927Z,13.46
2022-11-05T19:07:36.664Z,13.55
2022-11-05T19:10:03.786Z,13.64
2022-11-05T19:12:30.348Z,13.74
2022-11-05T19:15:02.124Z,13.84
2022-11-05T19:17:30.231Z,13.94
2022-11-05T19:19:56.820Z,13.99
2022-11-05T19:22:25.710Z,14.02
2022-11-05T19:24:52.323Z,14.02
2022-11-05T19:27:18.702Z,14.02
2022-11-05T19:29:46.397Z,14.03
2022-11-05T19:32:12.802Z,14.03
2022-11-05T19:34:39.262Z,14.08
2022-11-05T19:37:08.404Z,14.14
2022-11-05T19:39:35.359Z,14.24
2022-11-05T19:42:03.956Z,14.34
2022-11-05T19:44:31.222Z,14.43
2022-11-05T19:46:57.926Z,14.46
2022-11-05T19:49:24.548Z,14.50
2022-11-05T19:51:51.249Z,14.48
2022-11-05T19:54:17.810Z,14.49
2022-11-05T19:56:45.094Z,14.53
2022-11-05T19:59:12.937Z,14.55
2022-11-05T20:01:39.498Z,14.58
2022-11-05T20:04:08.070Z,14.58
2022-11-05T20:06:38.153Z,14.59
2022-11-05T20:09:21.092Z,14.63
2022-11-05T20:11:53.578Z,14.66
2022-11-05T20:14:20.105Z,14.67
2022-11-05T20:16:46.638Z,14.68
2022-11-05T20:19:14.372Z,14.70
2022-11-05T20:21:41.236Z,14.71
2022-11-05T20:24:08.010Z,14.69
2022-11-05T20:26:34.811Z,14.69
2022-11-05T20:29:02.898Z,14.69
2022-11-05T20:31:29.875Z,14.69
2022-11-05T20:33:56.415Z,14.67
2022-11-05T20:36:24.000Z,14.66
2022-11-05T20:38:52.455Z,14.68
2022-11-05T20:41:19.174Z,14.72
2022-11-05T20:43:46.307Z,14.75
2022-11-05T20:46:15.732Z,14.75
2022-11-05T20:48:42.715Z,14.72
2022-11-05T20:51:13.183Z,14.66
2022-11-05T20:53:39.876Z,14.62
2022-11-05T20:56:08.719Z,14.63
2022-11-05T20:58:36.603Z,14.63
2022-11-05T21:01:04.628Z,14.63
2022-11-05T21:03:31.396Z,14.61
2022-11-05T21:05:59.273Z,14.61
2022-11-05T21:08:27.017Z,14.56
2022-11-05T21:10:54.227Z,14.53
2022-11-05T21:13:21.651Z,14.49
2022-11-05T21:15:52.773Z,14.47
2022-11-05T21:18:22.209Z,14.47
2022-11-05T21:20:48.713Z,14.51
2022-11-05T21:23:15.271Z,14.59
2022-11-05T21:25:42.096Z,14.67
2022-11-05T21:28:11.098Z,14.73
2022-11-05T21:30:41.314Z,14.81
2022-11-05T21:33:08.240Z,14.81
2022-11-05T21:35:39.968Z,14.76
2022-11-05T21:38:06.744Z,14.65
2022-11-05T21:40:33.217Z,14.54
2022-11-05T21:42:59.602Z,14.47
2022-11-05T21:45:26.147Z,14.46
2022-11-05T21:47:52.523Z,14.48
2022-11-05T21:50:21.956Z,14.49
2022-11-05T21:53:07.162Z,14.52
2022-11-05T21:55:52.135Z,14.59
2022-11-05T21:58:37.349Z,14.65
2022-11-05T22:01:03.994Z,14.71
2022-11-05T22:03:30.389Z,14.77
2022-11-05T22:05:56.846Z,14.82
2022-11-05T22:08:23.293Z,14.87
2022-11-05T22:10:49.716Z,14.91
2022-11-05T22:13:16.207Z,14.94
2022-11-05T22:15:42.600Z,14.95
2022-11-05T22:18:10.891Z,14.98
2022-11-05T22:20:38.565Z,14.99
2022-11-05T22:23:10.052Z,14.96
2022-11-05T22:25:37.783Z,14.94
2022-11-05T22:28:04.208Z,14.97
2022-11-05T22:30:34.046Z,14.98
2022-11-05T22:33:00.692Z,14.98
2022-11-05T22:35:27.081Z,14.94
2022-11-05T22:37:53.921Z,14.86
2022-11-05T22:40:23.701Z,14.80
2022-11-05T22:42:50.929Z,14.75
2022-11-05T22:45:17.800Z,14.72
2022-11-05T22:47:44.170Z,14.70
2022-11-05T22:50:10.659Z,14.55
2022-11-05T22:52:36.990Z,14.48
2022-11-05T22:55:05.646Z,14.47
2022-11-05T22:57:32.203Z,14.49
2022-11-05T22:59:59.980Z,14.53
2022-11-05T23:02:26.592Z,14.54
2022-11-05T23:04:53.169Z,14.55
2022-11-05T23:07:47.664Z,14.61
2022-11-05T23:10:32.521Z,14.69
2022-11-05T23:12:59.966Z,14.69
2022-11-05T23:15:44.946Z,14.63
2022-11-05T23:18:30.103Z,14.56
2022-11-05T23:21:17.959Z,14.47
2022-11-05T23:24:03.775Z,14.47
2022-11-05T23:26:50.263Z,14.48
2022-11-05T23:29:23.532Z,14.47
2022-11-05T23:32:09.818Z,14.40
2022-11-05T23:34:36.583Z,14.32
2022-11-05T23:37:21.978Z,14.31
2022-11-05T23:39:49.610Z,14.33
2022-11-05T23:42:35.491Z,14.17
2022-11-05T23:45:21.449Z,14.03
2022-11-05T23:48:06.371Z,13.93
2022-11-05T23:50:37.182Z,13.80
2022-11-05T23:53:06.574Z,13.81
2022-11-05T23:55:33.220Z,13.83
2022-11-05T23:57:59.807Z,13.81
